sensor_id;sensor_type;location;lat;lon;timestamp;pressure;altitude;pressure_sealevel;temperature;humidity
58367;BME280;57745;42.524;12.052;2023-05-23T00:00:41;96250.53;;;20.44;60.26
58367;BME280;57745;42.524;12.052;2023-05-23T00:03:06;96241.53;;;20.50;60.44
58367;BME280;57745;42.524;12.052;2023-05-23T00:05:33;96246.06;;;20.58;60.62
58367;BME280;57745;42.524;12.052;2023-05-23T00:07:59;96246.03;;;20.53;60.16
58367;BME280;57745;42.524;12.052;2023-05-23T00:10:25;96236.75;;;20.44;60.51
58367;BME280;57745;42.524;12.052;2023-05-23T00:12:50;96236.75;;;20.44;60.28
58367;BME280;57745;42.524;12.052;2023-05-23T00:15:16;96237.81;;;20.58;60.53
58367;BME280;57745;42.524;12.052;2023-05-23T00:17:42;96237.78;;;20.53;60.43
58367;BME280;57745;42.524;12.052;2023-05-23T00:20:09;96238.31;;;20.57;60.33
58367;BME280;57745;42.524;12.052;2023-05-23T00:22:36;96241.84;;;20.63;59.76
58367;BME280;57745;42.524;12.052;2023-05-23T00:25:08;96248.44;;;20.28;60.66
58367;BME280;57745;42.524;12.052;2023-05-23T00:27:34;96243.53;;;20.43;60.24
58367;BME280;57745;42.524;12.052;2023-05-23T00:29:59;96238.19;;;20.29;60.74
58367;BME280;57745;42.524;12.052;2023-05-23T00:32:25;96235.78;;;20.53;60.03
58367;BME280;57745;42.524;12.052;2023-05-23T00:34:50;96228.03;;;20.52;60.14
58367;BME280;57745;42.524;12.052;2023-05-23T00:37:19;96244.28;;;20.44;60.46
58367;BME280;57745;42.524;12.052;2023-05-23T00:39:44;96239.94;;;20.26;61.07
58367;BME280;57745;42.524;12.052;2023-05-23T00:42:10;96235.00;;;20.36;60.45
58367;BME280;57745;42.524;12.052;2023-05-23T00:44:35;96237.53;;;20.51;59.85
58367;BME280;57745;42.524;12.052;2023-05-23T00:47:01;96245.19;;;20.24;60.86
58367;BME280;57745;42.524;12.052;2023-05-23T00:49:26;96230.63;;;20.18;61.22
58367;BME280;57745;42.524;12.052;2023-05-23T00:51:52;96228.63;;;20.13;61.17
58367;BME280;57745;42.524;12.052;2023-05-23T00:54:23;96218.84;;;20.18;60.82
58367;BME280;57745;42.524;12.052;2023-05-23T00:56:49;96226.13;;;20.15;61.04
58367;BME280;57745;42.524;12.052;2023-05-23T00:59:15;96229.25;;;20.39;60.34
58367;BME280;57745;42.524;12.052;2023-05-23T01:01:41;96227.06;;;20.06;61.25
58367;BME280;57745;42.524;12.052;2023-05-23T01:04:10;96229.69;;;20.32;60.38
58367;BME280;57745;42.524;12.052;2023-05-23T01:06:37;96214.63;;;20.22;60.60
58367;BME280;57745;42.524;12.052;2023-05-23T01:09:03;96222.44;;;20.35;60.12
58367;BME280;57745;42.524;12.052;2023-05-23T01:11:34;96221.97;;;20.42;59.97
58367;BME280;57745;42.524;12.052;2023-05-23T01:14:10;96228.72;;;20.35;60.05
58367;BME280;57745;42.524;12.052;2023-05-23T01:16:57;96224.94;;;20.27;60.35
58367;BME280;57745;42.524;12.052;2023-05-23T01:20:03;96228.44;;;20.33;59.90
58367;BME280;57745;42.524;12.052;2023-05-23T01:25:18;96227.78;;;20.50;59.29
58367;BME280;57745;42.524;12.052;2023-05-23T01:27:51;96225.41;;;20.26;60.21
58367;BME280;57745;42.524;12.052;2023-05-23T01:30:19;96222.72;;;20.42;59.64
58367;BME280;57745;42.524;12.052;2023-05-23T01:32:47;96226.22;;;20.37;59.84
58367;BME280;57745;42.524;12.052;2023-05-23T01:35:16;96225.47;;;20.42;59.65
58367;BME280;57745;42.524;12.052;2023-05-23T01:37:44;96225.97;;;20.35;59.83
58367;BME280;57745;42.524;12.052;2023-05-23T01:40:10;96217.41;;;20.33;59.81
58367;BME280;57745;42.524;12.052;2023-05-23T01:42:36;96215.63;;;20.19;60.34
58367;BME280;57745;42.524;12.052;2023-05-23T01:45:02;96225.69;;;20.33;60.12
58367;BME280;57745;42.524;12.052;2023-05-23T01:47:28;96217.38;;;20.28;60.21
58367;BME280;57745;42.524;12.052;2023-05-23T01:49:54;96219.16;;;20.31;59.84
58367;BME280;57745;42.524;12.052;2023-05-23T01:52:21;96218.38;;;20.19;60.06
58367;BME280;57745;42.524;12.052;2023-05-23T01:54:48;96217.88;;;20.21;60.07
58367;BME280;57745;42.524;12.052;2023-05-23T01:57:15;96223.63;;;20.17;60.23
58367;BME280;57745;42.524;12.052;2023-05-23T01:59:40;96216.59;;;20.11;60.44
58367;BME280;57745;42.524;12.052;2023-05-23T02:02:06;96211.09;;;20.16;60.07
58367;BME280;57745;42.524;12.052;2023-05-23T02:04:31;96208.38;;;20.22;60.10
58367;BME280;57745;42.524;12.052;2023-05-23T02:06:56;96215.47;;;20.39;59.67
58367;BME280;57745;42.524;12.052;2023-05-23T02:09:22;96208.09;;;20.14;60.29
58367;BME280;57745;42.524;12.052;2023-05-23T02:11:47;96209.91;;;20.34;59.77
58367;BME280;57745;42.524;12.052;2023-05-23T02:14:13;96217.66;;;20.24;60.07
58367;BME280;57745;42.524;12.052;2023-05-23T02:16:38;96214.09;;;20.18;60.18
58367;BME280;57745;42.524;12.052;2023-05-23T02:19:04;96209.09;;;20.11;60.28
58367;BME280;57745;42.524;12.052;2023-05-23T02:21:29;96211.09;;;20.16;60.19
58367;BME280;57745;42.524;12.052;2023-05-23T02:23:55;96207.38;;;20.25;59.88
58367;BME280;57745;42.524;12.052;2023-05-23T02:26:21;96208.88;;;20.20;60.16
58367;BME280;57745;42.524;12.052;2023-05-23T02:28:46;96210.63;;;20.29;59.76
58367;BME280;57745;42.524;12.052;2023-05-23T02:31:12;96210.59;;;20.12;60.29
58367;BME280;57745;42.524;12.052;2023-05-23T02:33:37;96209.09;;;20.11;60.57
58367;BME280;57745;42.524;12.052;2023-05-23T02:36:03;96209.09;;;20.11;60.47
58367;BME280;57745;42.524;12.052;2023-05-23T02:38:29;96211.34;;;20.13;60.32
58367;BME280;57745;42.524;12.052;2023-05-23T02:40:55;96216.38;;;20.20;60.25
58367;BME280;57745;42.524;12.052;2023-05-23T02:43:22;96211.91;;;20.33;59.90
58367;BME280;57745;42.524;12.052;2023-05-23T02:45:47;96216.56;;;20.05;60.72
58367;BME280;57745;42.524;12.052;2023-05-23T02:48:13;96214.06;;;20.07;60.41
58367;BME280;57745;42.524;12.052;2023-05-23T02:50:38;96216.66;;;20.27;59.55
58367;BME280;57745;42.524;12.052;2023-05-23T02:53:04;96213.16;;;20.27;59.69
58367;BME280;57745;42.524;12.052;2023-05-23T02:55:29;96219.78;;;20.03;60.19
58367;BME280;57745;42.524;12.052;2023-05-23T02:57:56;96212.28;;;19.98;60.55
58367;BME280;57745;42.524;12.052;2023-05-23T03:00:23;96206.13;;;20.26;59.75
58367;BME280;57745;42.524;12.052;2023-05-23T03:02:48;96208.09;;;20.14;60.16
58367;BME280;57745;42.524;12.052;2023-05-23T03:05:14;96220.56;;;20.04;60.31
58367;BME280;57745;42.524;12.052;2023-05-23T03:07:39;96217.88;;;20.21;59.76
58367;BME280;57745;42.524;12.052;2023-05-23T03:10:06;96218.66;;;20.32;59.36
58367;BME280;57745;42.524;12.052;2023-05-23T03:12:31;96215.41;;;20.34;59.68
58367;BME280;57745;42.524;12.052;2023-05-23T03:14:57;96221.88;;;20.14;59.68
58367;BME280;57745;42.524;12.052;2023-05-23T03:17:24;96211.97;;;20.44;58.97
58367;BME280;57745;42.524;12.052;2023-05-23T03:19:49;96215.91;;;20.32;59.34
58367;BME280;57745;42.524;12.052;2023-05-23T03:22:15;96218.47;;;20.36;58.95
58367;BME280;57745;42.524;12.052;2023-05-23T03:24:40;96217.91;;;20.26;59.38
58367;BME280;57745;42.524;12.052;2023-05-23T03:27:06;96219.97;;;20.37;59.04
58367;BME280;57745;42.524;12.052;2023-05-23T03:29:31;96223.91;;;20.30;59.34
58367;BME280;57745;42.524;12.052;2023-05-23T03:31:57;96228.94;;;20.26;59.41
58367;BME280;57745;42.524;12.052;2023-05-23T03:34:22;96225.41;;;20.31;58.90
58367;BME280;57745;42.524;12.052;2023-05-23T03:36:51;96225.41;;;20.26;59.24
58367;BME280;57745;42.524;12.052;2023-05-23T03:39:16;96231.56;;;20.04;59.88
58367;BME280;57745;42.524;12.052;2023-05-23T03:41:41;96228.09;;;20.09;59.72
58367;BME280;57745;42.524;12.052;2023-05-23T03:44:07;96220.91;;;20.23;59.44
58367;BME280;57745;42.524;12.052;2023-05-23T03:46:32;96227.16;;;20.23;59.00
58367;BME280;57745;42.524;12.052;2023-05-23T03:48:58;96229.13;;;20.17;59.48
58367;BME280;57745;42.524;12.052;2023-05-23T03:51:23;96225.75;;;19.91;60.12
58367;BME280;57745;42.524;12.052;2023-05-23T03:53:49;96223.81;;;20.02;59.86
58367;BME280;57745;42.524;12.052;2023-05-23T03:56:14;96217.66;;;20.24;59.17
58367;BME280;57745;42.524;12.052;2023-05-23T03:58:39;96225.13;;;20.18;59.14
58367;BME280;57745;42.524;12.052;2023-05-23T04:01:05;96223.63;;;20.17;59.17
58367;BME280;57745;42.524;12.052;2023-05-23T04:03:31;96230.88;;;20.20;59.09
58367;BME280;57745;42.524;12.052;2023-05-23T04:05:58;96225.41;;;20.26;58.87
58367;BME280;57745;42.524;12.052;2023-05-23T04:08:25;96231.28;;;19.96;59.81
58367;BME280;57745;42.524;12.052;2023-05-23T04:10:50;96229.06;;;20.06;59.45
58367;BME280;57745;42.524;12.052;2023-05-23T04:13:16;96231.38;;;20.13;59.47
58367;BME280;57745;42.524;12.052;2023-05-23T04:15:41;96234.13;;;20.13;59.59
58367;BME280;57745;42.524;12.052;2023-05-23T04:18:07;96231.81;;;20.06;59.63
58367;BME280;57745;42.524;12.052;2023-05-23T04:20:34;96239.91;;;20.15;59.64
58367;BME280;57745;42.524;12.052;2023-05-23T04:22:59;96239.59;;;20.02;59.83
58367;BME280;57745;42.524;12.052;2023-05-23T04:25:25;96237.06;;;20.04;59.85
58367;BME280;57745;42.524;12.052;2023-05-23T04:27:51;96242.81;;;20.00;59.85
58367;BME280;57745;42.524;12.052;2023-05-23T04:30:18;96239.09;;;20.09;59.56
58367;BME280;57745;42.524;12.052;2023-05-23T04:32:43;96246.41;;;20.18;59.32
58367;BME280;57745;42.524;12.052;2023-05-23T04:35:10;96237.59;;;20.08;59.73
58367;BME280;57745;42.524;12.052;2023-05-23T04:37:36;96232.16;;;20.25;58.97
58367;BME280;57745;42.524;12.052;2023-05-23T04:40:02;96232.38;;;20.16;59.33
58367;BME280;57745;42.524;12.052;2023-05-23T04:42:28;96230.63;;;20.18;59.32
58367;BME280;57745;42.524;12.052;2023-05-23T04:44:54;96234.44;;;20.26;59.06
58367;BME280;57745;42.524;12.052;2023-05-23T04:47:22;96245.91;;;20.14;59.26
58367;BME280;57745;42.524;12.052;2023-05-23T04:49:49;96245.44;;;20.26;59.04
58367;BME280;57745;42.524;12.052;2023-05-23T04:52:15;96247.94;;;20.24;59.23
58367;BME280;57745;42.524;12.052;2023-05-23T04:54:43;96246.69;;;20.25;59.30
58367;BME280;57745;42.524;12.052;2023-05-23T04:57:11;96247.44;;;20.31;59.15
58367;BME280;57745;42.524;12.052;2023-05-23T04:59:37;96249.19;;;20.23;59.28
58367;BME280;57745;42.524;12.052;2023-05-23T05:02:02;96251.94;;;20.23;59.22
58367;BME280;57745;42.524;12.052;2023-05-23T05:04:28;96245.19;;;20.24;59.64
58367;BME280;57745;42.524;12.052;2023-05-23T05:06:53;96265.47;;;20.27;59.51
58367;BME280;57745;42.524;12.052;2023-05-23T05:09:19;96258.53;;;20.42;59.13
58367;BME280;57745;42.524;12.052;2023-05-23T05:11:46;96262.34;;;20.51;58.99
58367;BME280;57745;42.524;12.052;2023-05-23T05:14:11;96259.06;;;20.47;58.91
58367;BME280;57745;42.524;12.052;2023-05-23T05:16:36;96260.47;;;20.31;59.59
58367;BME280;57745;42.524;12.052;2023-05-23T05:19:02;96252.53;;;20.44;59.41
58367;BME280;57745;42.524;12.052;2023-05-23T05:21:27;96249.78;;;20.38;59.80
58367;BME280;57745;42.524;12.052;2023-05-23T05:23:53;96246.03;;;20.47;59.69
58367;BME280;57745;42.524;12.052;2023-05-23T05:26:18;96245.25;;;20.35;60.17
58367;BME280;57745;42.524;12.052;2023-05-23T05:28:44;96251.78;;;20.43;59.69
58367;BME280;57745;42.524;12.052;2023-05-23T05:31:09;96249.06;;;20.49;60.10
58367;BME280;57745;42.524;12.052;2023-05-23T05:33:39;96244.53;;;20.46;60.12
58367;BME280;57745;42.524;12.052;2023-05-23T05:36:06;96250.78;;;20.47;60.55
58367;BME280;57745;42.524;12.052;2023-05-23T05:38:32;96256.31;;;20.47;60.00
58367;BME280;57745;42.524;12.052;2023-05-23T05:40:58;96249.03;;;20.43;60.55
58367;BME280;57745;42.524;12.052;2023-05-23T05:43:24;96247.50;;;20.37;60.59
58367;BME280;57745;42.524;12.052;2023-05-23T05:45:50;96255.97;;;20.33;60.31
58367;BME280;57745;42.524;12.052;2023-05-23T05:48:16;96249.28;;;20.46;60.32
58367;BME280;57745;42.524;12.052;2023-05-23T05:50:42;96241.53;;;20.55;60.18
58367;BME280;57745;42.524;12.052;2023-05-23T05:53:10;96242.00;;;20.37;60.68
58367;BME280;57745;42.524;12.052;2023-05-23T05:55:35;96240.97;;;20.34;60.61
58367;BME280;57745;42.524;12.052;2023-05-23T05:58:02;96241.19;;;20.25;60.87
58367;BME280;57745;42.524;12.052;2023-05-23T06:00:27;96245.81;;;20.51;60.06
58367;BME280;57745;42.524;12.052;2023-05-23T06:02:53;96247.56;;;20.54;59.65
58367;BME280;57745;42.524;12.052;2023-05-23T06:05:21;96248.06;;;20.52;59.58
58367;BME280;57745;42.524;12.052;2023-05-23T06:07:48;96251.19;;;20.28;60.59
58367;BME280;57745;42.524;12.052;2023-05-23T06:10:14;96258.53;;;20.37;60.07
58367;BME280;57745;42.524;12.052;2023-05-23T06:12:39;96255.03;;;20.42;60.01
58367;BME280;57745;42.524;12.052;2023-05-23T06:15:05;96254.28;;;20.41;60.05
58367;BME280;57745;42.524;12.052;2023-05-23T06:17:31;96259.31;;;20.49;59.73
58367;BME280;57745;42.524;12.052;2023-05-23T06:19:57;96262.34;;;20.51;59.46
58367;BME280;57745;42.524;12.052;2023-05-23T06:22:22;96266.72;;;20.31;59.42
58367;BME280;57745;42.524;12.052;2023-05-23T06:24:47;96266.78;;;20.42;59.22
58367;BME280;57745;42.524;12.052;2023-05-23T06:27:13;96265.06;;;20.45;59.80
58367;BME280;57745;42.524;12.052;2023-05-23T06:29:38;96264.34;;;20.56;59.53
58367;BME280;57745;42.524;12.052;2023-05-23T06:32:04;96258.56;;;20.54;59.47
58367;BME280;57745;42.524;12.052;2023-05-23T06:34:30;96251.03;;;20.37;60.11
58367;BME280;57745;42.524;12.052;2023-05-23T06:36:55;96253.59;;;20.58;59.40
58367;BME280;57745;42.524;12.052;2023-05-23T06:39:21;96262.53;;;20.36;60.18
58367;BME280;57745;42.524;12.052;2023-05-23T06:41:46;96267.06;;;20.39;59.69
58367;BME280;57745;42.524;12.052;2023-05-23T06:44:12;96261.59;;;20.50;59.22
58367;BME280;57745;42.524;12.052;2023-05-23T06:46:38;96265.63;;;20.60;58.84
58367;BME280;57745;42.524;12.052;2023-05-23T06:49:03;96267.34;;;20.58;58.85
58367;BME280;57745;42.524;12.052;2023-05-23T06:51:28;96268.38;;;20.60;58.77
58367;BME280;57745;42.524;12.052;2023-05-23T06:53:54;96273.16;;;20.71;58.84
58367;BME280;57745;42.524;12.052;2023-05-23T06:56:22;96266.88;;;20.65;58.64
58367;BME280;57745;42.524;12.052;2023-05-23T06:58:48;96269.41;;;20.79;57.95
58367;BME280;57745;42.524;12.052;2023-05-23T07:01:13;96276.44;;;20.80;58.42
58367;BME280;57745;42.524;12.052;2023-05-23T07:03:39;96277.97;;;20.87;57.74
58367;BME280;57745;42.524;12.052;2023-05-23T07:06:06;96274.94;;;20.74;58.20
58367;BME280;57745;42.524;12.052;2023-05-23T07:08:32;96270.13;;;20.69;58.93
58367;BME280;57745;42.524;12.052;2023-05-23T07:10:58;96273.13;;;20.65;58.65
58367;BME280;57745;42.524;12.052;2023-05-23T07:13:23;96277.22;;;20.87;57.88
58367;BME280;57745;42.524;12.052;2023-05-23T07:15:49;96274.94;;;20.85;58.61
58367;BME280;57745;42.524;12.052;2023-05-23T07:18:14;96286.22;;;20.82;58.74
58367;BME280;57745;42.524;12.052;2023-05-23T07:20:40;96279.22;;;20.92;57.93
58367;BME280;57745;42.524;12.052;2023-05-23T07:23:05;96279.47;;;20.94;58.02
58367;BME280;57745;42.524;12.052;2023-05-23T07:25:31;96279.94;;;20.81;59.37
58367;BME280;57745;42.524;12.052;2023-05-23T07:27:56;96274.44;;;20.75;58.92
58367;BME280;57745;42.524;12.052;2023-05-23T07:30:21;96280.22;;;20.94;58.44
58367;BME280;57745;42.524;12.052;2023-05-23T07:32:47;96283.75;;;20.89;58.77
58367;BME280;57745;42.524;12.052;2023-05-23T07:35:14;96280.44;;;20.74;58.84
58367;BME280;57745;42.524;12.052;2023-05-23T07:37:39;96284.94;;;20.71;59.22
58367;BME280;57745;42.524;12.052;2023-05-23T07:40:06;96278.19;;;20.84;58.67
58367;BME280;57745;42.524;12.052;2023-05-23T07:42:33;96287.69;;;20.71;58.61
58367;BME280;57745;42.524;12.052;2023-05-23T07:44:58;96279.44;;;20.77;58.46
58367;BME280;57745;42.524;12.052;2023-05-23T07:47:24;96280.97;;;20.89;58.20
58367;BME280;57745;42.524;12.052;2023-05-23T07:49:49;96281.22;;;20.91;58.21
58367;BME280;57745;42.524;12.052;2023-05-23T07:52:16;96286.44;;;20.78;58.80
58367;BME280;57745;42.524;12.052;2023-05-23T07:54:41;96284.97;;;20.83;58.99
58367;BME280;57745;42.524;12.052;2023-05-23T07:57:08;96287.19;;;20.73;59.07
58367;BME280;57745;42.524;12.052;2023-05-23T07:59:33;96288.22;;;20.92;58.55
58367;BME280;57745;42.524;12.052;2023-05-23T08:01:59;96284.72;;;20.92;58.20
58367;BME280;57745;42.524;12.052;2023-05-23T08:04:24;96294.50;;;20.93;58.56
58367;BME280;57745;42.524;12.052;2023-05-23T08:06:50;96282.97;;;20.94;58.53
58367;BME280;57745;42.524;12.052;2023-05-23T08:09:17;96283.97;;;20.86;59.03
58367;BME280;57745;42.524;12.052;2023-05-23T08:11:43;96283.94;;;20.80;59.51
58367;BME280;57745;42.524;12.052;2023-05-23T08:14:08;96282.97;;;20.89;59.15
58367;BME280;57745;42.524;12.052;2023-05-23T08:16:34;96287.75;;;20.88;58.68
58367;BME280;57745;42.524;12.052;2023-05-23T08:19:00;96291.25;;;20.89;59.12
58367;BME280;57745;42.524;12.052;2023-05-23T08:21:25;96287.25;;;21.01;59.04
58367;BME280;57745;42.524;12.052;2023-05-23T08:23:51;96290.75;;;20.96;59.46
58367;BME280;57745;42.524;12.052;2023-05-23T08:26:16;96282.00;;;20.97;59.02
58367;BME280;57745;42.524;12.052;2023-05-23T08:28:42;96287.00;;;21.04;58.90
58367;BME280;57745;42.524;12.052;2023-05-23T08:31:07;96276.69;;;20.83;59.90
58367;BME280;57745;42.524;12.052;2023-05-23T08:33:33;96283.97;;;20.91;59.53
58367;BME280;57745;42.524;12.052;2023-05-23T08:35:58;96286.50;;;21.00;59.01
58367;BME280;57745;42.524;12.052;2023-05-23T08:38:23;96287.25;;;20.95;58.95
58367;BME280;57745;42.524;12.052;2023-05-23T08:40:51;96279.50;;;20.99;58.53
58367;BME280;57745;42.524;12.052;2023-05-23T08:43:17;96297.78;;;21.08;58.73
58367;BME280;57745;42.524;12.052;2023-05-23T08:45:43;96300.28;;;21.00;59.13
58367;BME280;57745;42.524;12.052;2023-05-23T08:48:12;96287.00;;;20.99;59.33
58367;BME280;57745;42.524;12.052;2023-05-23T08:50:41;96298.28;;;21.01;59.21
58367;BME280;57745;42.524;12.052;2023-05-23T08:53:14;96296.28;;;20.96;58.61
58367;BME280;57745;42.524;12.052;2023-05-23T08:55:47;96298.78;;;21.05;57.79
58367;BME280;57745;42.524;12.052;2023-05-23T08:58:16;96294.78;;;21.11;57.25
58367;BME280;57745;42.524;12.052;2023-05-23T09:00:45;96300.06;;;21.09;57.85
58367;BME280;57745;42.524;12.052;2023-05-23T09:03:11;96290.00;;;21.06;57.76
58367;BME280;57745;42.524;12.052;2023-05-23T09:05:37;96293.00;;;21.03;58.05
58367;BME280;57745;42.524;12.052;2023-05-23T09:08:02;96299.56;;;21.11;58.60
58367;BME280;57745;42.524;12.052;2023-05-23T09:10:28;96296.03;;;21.16;58.61
58367;BME280;57745;42.524;12.052;2023-05-23T09:12:54;96293.28;;;21.10;59.08
58367;BME280;57745;42.524;12.052;2023-05-23T09:15:20;96300.09;;;21.21;58.77
58367;BME280;57745;42.524;12.052;2023-05-23T09:17:46;96302.06;;;21.14;59.45
58367;BME280;57745;42.524;12.052;2023-05-23T09:20:14;96295.28;;;21.10;59.37
58367;BME280;57745;42.524;12.052;2023-05-23T09:22:40;96292.25;;;21.02;59.65
58367;BME280;57745;42.524;12.052;2023-05-23T09:25:09;96296.09;;;21.22;58.88
58367;BME280;57745;42.524;12.052;2023-05-23T09:27:35;96291.28;;;21.11;58.89
58367;BME280;57745;42.524;12.052;2023-05-23T09:30:10;96292.56;;;21.27;58.43
58367;BME280;57745;42.524;12.052;2023-05-23T09:32:36;96297.09;;;21.24;59.08
58367;BME280;57745;42.524;12.052;2023-05-23T09:35:04;96292.56;;;21.27;59.74
58367;BME280;57745;42.524;12.052;2023-05-23T09:37:31;96291.31;;;21.28;59.71
58367;BME280;57745;42.524;12.052;2023-05-23T09:39:59;96296.09;;;21.22;60.13
58367;BME280;57745;42.524;12.052;2023-05-23T09:42:30;96284.31;;;21.38;59.66
58367;BME280;57745;42.524;12.052;2023-05-23T09:44:57;96289.84;;;21.38;60.34
58367;BME280;57745;42.524;12.052;2023-05-23T09:47:23;96292.34;;;21.25;60.76
58367;BME280;57745;42.524;12.052;2023-05-23T09:49:48;96292.59;;;21.32;59.86
58367;BME280;57745;42.524;12.052;2023-05-23T09:52:15;96288.31;;;21.31;59.30
58367;BME280;57745;42.524;12.052;2023-05-23T09:54:41;96291.56;;;21.41;58.68
58367;BME280;57745;42.524;12.052;2023-05-23T09:57:09;96283.81;;;21.34;58.85
58367;BME280;57745;42.524;12.052;2023-05-23T09:59:38;96289.84;;;21.38;57.99
58367;BME280;57745;42.524;12.052;2023-05-23T10:02:06;96288.81;;;21.35;57.80
58367;BME280;57745;42.524;12.052;2023-05-23T10:04:33;96290.56;;;21.44;57.58
58367;BME280;57745;42.524;12.052;2023-05-23T10:07:12;96282.31;;;21.38;57.95
58367;BME280;57745;42.524;12.052;2023-05-23T10:09:43;96285.28;;;21.51;57.21
58367;BME280;57745;42.524;12.052;2023-05-23T10:12:20;96282.81;;;21.42;57.65
58367;BME280;57745;42.524;12.052;2023-05-23T10:15:03;96282.03;;;21.42;57.01
58367;BME280;57745;42.524;12.052;2023-05-23T10:20:16;96291.56;;;21.52;57.05
58367;BME280;57745;42.524;12.052;2023-05-23T10:22:43;96285.06;;;21.49;56.95
58367;BME280;57745;42.524;12.052;2023-05-23T10:25:09;96289.34;;;21.50;57.07
58367;BME280;57745;42.524;12.052;2023-05-23T10:27:38;96292.06;;;21.56;56.97
58367;BME280;57745;42.524;12.052;2023-05-23T10:30:06;96282.53;;;21.51;57.50
58367;BME280;57745;42.524;12.052;2023-05-23T10:32:32;96292.84;;;21.57;57.36
58367;BME280;57745;42.524;12.052;2023-05-23T10:35:09;96294.84;;;21.50;57.24
58367;BME280;57745;42.524;12.052;2023-05-23T10:43:06;96282.53;;;21.68;57.26
58367;BME280;57745;42.524;12.052;2023-05-23T10:45:41;96285.06;;;21.61;57.75
58367;BME280;57745;42.524;12.052;2023-05-23T10:50:45;96287.31;;;21.62;56.99
58367;BME280;57745;42.524;12.052;2023-05-23T10:53:15;96288.31;;;21.70;57.06
58367;BME280;57745;42.524;12.052;2023-05-23T10:55:47;96284.56;;;21.73;56.69
58367;BME280;57745;42.524;12.052;2023-05-23T11:00:58;96285.56;;;21.70;57.26
58367;BME280;57745;42.524;12.052;2023-05-23T11:03:48;96282.03;;;21.75;56.39
58367;BME280;57745;42.524;12.052;2023-05-23T11:06:42;96287.28;;;21.79;56.12
58367;BME280;57745;42.524;12.052;2023-05-23T11:09:22;96282.03;;;21.75;56.39
58367;BME280;57745;42.524;12.052;2023-05-23T11:12:01;96281.28;;;21.75;56.16
58367;BME280;57745;42.524;12.052;2023-05-23T11:17:14;96269.47;;;21.85;56.47
58367;BME280;57745;42.524;12.052;2023-05-23T11:19:55;96281.00;;;21.90;55.96
58367;BME280;57745;42.524;12.052;2023-05-23T11:22:27;96273.50;;;21.84;55.78
58367;BME280;57745;42.524;12.052;2023-05-23T11:24:54;96271.72;;;21.87;54.86
58367;BME280;57745;42.524;12.052;2023-05-23T11:30:00;96272.22;;;21.85;55.45
58367;BME280;57745;42.524;12.052;2023-05-23T11:32:32;96268.97;;;21.81;55.98
58367;BME280;57745;42.524;12.052;2023-05-23T11:34:59;96266.47;;;21.83;55.79
58367;BME280;57745;42.524;12.052;2023-05-23T11:37:25;96259.16;;;21.92;55.80
58367;BME280;57745;42.524;12.052;2023-05-23T11:39:51;96274.47;;;21.93;55.72
58367;BME280;57745;42.524;12.052;2023-05-23T11:42:16;96261.66;;;21.90;55.56
58367;BME280;57745;42.524;12.052;2023-05-23T11:44:42;96258.41;;;21.91;55.98
58367;BME280;57745;42.524;12.052;2023-05-23T11:47:09;96267.44;;;21.92;55.61
58367;BME280;57745;42.524;12.052;2023-05-23T11:49:36;96263.69;;;21.95;55.49
58367;BME280;57745;42.524;12.052;2023-05-23T11:52:04;96260.66;;;21.93;55.72
58367;BME280;57745;42.524;12.052;2023-05-23T11:54:33;96258.66;;;21.93;55.41
58367;BME280;57745;42.524;12.052;2023-05-23T11:56:58;96257.16;;;21.92;55.62
58367;BME280;57745;42.524;12.052;2023-05-23T11:59:26;96250.63;;;21.90;55.41
58367;BME280;57745;42.524;12.052;2023-05-23T12:01:53;96246.09;;;21.92;55.90
58367;BME280;57745;42.524;12.052;2023-05-23T12:04:19;96250.38;;;21.93;55.89
58367;BME280;57745;42.524;12.052;2023-05-23T12:06:48;96245.34;;;21.92;55.43
58367;BME280;57745;42.524;12.052;2023-05-23T12:09:14;96246.09;;;21.98;55.64
58367;BME280;57745;42.524;12.052;2023-05-23T12:11:41;96247.13;;;22.00;55.55
58367;BME280;57745;42.524;12.052;2023-05-23T12:14:08;96247.13;;;22.00;54.99
58367;BME280;57745;42.524;12.052;2023-05-23T12:16:38;96241.09;;;21.96;54.76
58367;BME280;57745;42.524;12.052;2023-05-23T12:19:04;96238.31;;;21.96;54.83
58367;BME280;57745;42.524;12.052;2023-05-23T12:21:43;96242.34;;;22.01;54.88
58367;BME280;57745;42.524;12.052;2023-05-23T12:24:21;96229.28;;;21.96;55.17
58367;BME280;57745;42.524;12.052;2023-05-23T12:26:47;96230.03;;;21.96;54.99
58367;BME280;57745;42.524;12.052;2023-05-23T12:29:13;96236.09;;;22.00;55.43
58367;BME280;57745;42.524;12.052;2023-05-23T12:31:38;96226.00;;;22.03;55.05
58367;BME280;57745;42.524;12.052;2023-05-23T12:34:04;96221.53;;;22.00;54.98
58367;BME280;57745;42.524;12.052;2023-05-23T12:36:30;96229.81;;;22.00;55.07
58367;BME280;57745;42.524;12.052;2023-05-23T12:39:02;96217.50;;;21.95;54.94
58367;BME280;57745;42.524;12.052;2023-05-23T12:41:28;96222.25;;;21.95;55.29
58367;BME280;57745;42.524;12.052;2023-05-23T12:43:55;96221.00;;;22.01;56.09
58367;BME280;57745;42.524;12.052;2023-05-23T12:46:25;96221.00;;;21.96;56.90
58367;BME280;57745;42.524;12.052;2023-05-23T12:48:50;96216.97;;;22.08;56.72
58367;BME280;57745;42.524;12.052;2023-05-23T12:51:17;96224.75;;;22.04;57.00
58367;BME280;57745;42.524;12.052;2023-05-23T12:53:43;96223.53;;;21.99;57.62
58367;BME280;57745;42.524;12.052;2023-05-23T12:56:08;96223.25;;;22.03;57.76
58367;BME280;57745;42.524;12.052;2023-05-23T12:58:34;96220.25;;;22.01;57.55
58367;BME280;57745;42.524;12.052;2023-05-23T13:01:00;96218.75;;;22.00;57.95
58367;BME280;57745;42.524;12.052;2023-05-23T13:03:27;96216.72;;;22.06;57.26
58367;BME280;57745;42.524;12.052;2023-05-23T13:05:54;96217.47;;;22.06;57.48
58367;BME280;57745;42.524;12.052;2023-05-23T13:08:19;96222.25;;;22.06;57.73
58367;BME280;57745;42.524;12.052;2023-05-23T13:10:45;96213.19;;;22.11;57.42